sensor_id;sensor_type;location;lat;lon;timestamp;pressure;altitude;pressure_sealevel;temperature;humidity
18275;BME280;19470;49.322;7.218;2024-03-23T00:54:07;97924.84;;;15.83;77.62
18275;BME280;19470;49.322;7.218;2024-03-23T00:56:33;97927.13;;;16.04;76.24
18275;BME280;19470;49.322;7.218;2024-03-23T00:58:59;97924.28;;;15.35;80.69
18275;BME280;19470;49.322;7.218;2024-03-23T01:01:25;97914.59;;;16.18;76.55
18275;BME280;19470;49.322;7.218;2024-03-23T01:03:51;97912.22;;;16.30;75.42
18275;BME280;19470;49.322;7.218;2024-03-23T01:06:17;97918.56;;;16.34;76.00
18275;BME280;19470;49.322;7.218;2024-03-23T01:08:43;97917.66;;;16.25;75.41
18275;BME280;19470;49.322;7.218;2024-03-23T01:11:11;97910.53;;;16.34;75.60
18275;BME280;19470;49.322;7.218;2024-03-23T01:13:37;97920.72;;;16.32;75.19
18275;BME280;19470;49.322;7.218;2024-03-23T01:16:04;97910.44;;;16.40;75.05
18275;BME280;19470;49.322;7.218;2024-03-23T01:18:29;97906.88;;;16.44;75.10
18275;BME280;19470;49.322;7.218;2024-03-23T01:20:56;97903.09;;;16.59;74.40
18275;BME280;19470;49.322;7.218;2024-03-23T01:23:21;97896.50;;;16.43;75.35
18275;BME280;19470;49.322;7.218;2024-03-23T01:25:51;97906.19;;;15.97;77.43
18275;BME280;19470;49.322;7.218;2024-03-23T01:28:18;97902.31;;;16.17;76.81
18275;BME280;19470;49.322;7.218;2024-03-23T01:30:45;97902.19;;;15.67;78.85
18275;BME280;19470;49.322;7.218;2024-03-23T01:33:10;97908.06;;;15.97;77.63
18275;BME280;19470;49.322;7.218;2024-03-23T01:35:37;97902.50;;;15.79;78.60
18275;BME280;19470;49.322;7.218;2024-03-23T01:38:03;97897.97;;;15.94;79.03
18275;BME280;19470;49.322;7.218;2024-03-23T01:40:29;97894.81;;;15.92;77.48
18275;BME280;19470;49.322;7.218;2024-03-23T01:42:57;97894.66;;;15.69;80.15
18275;BME280;19470;49.322;7.218;2024-03-23T01:45:25;97898.06;;;15.04;83.20
18275;BME280;19470;49.322;7.218;2024-03-23T01:47:51;97893.56;;;15.38;82.33
18275;BME280;19470;49.322;7.218;2024-03-23T01:50:18;97896.28;;;15.51;80.86
18275;BME280;19470;49.322;7.218;2024-03-23T01:52:45;97889.22;;;15.74;79.00
18275;BME280;19470;49.322;7.218;2024-03-23T01:55:11;97896.09;;;15.62;79.30
18275;BME280;19470;49.322;7.218;2024-03-23T01:57:37;97888.53;;;15.36;79.53
18275;BME280;19470;49.322;7.218;2024-03-23T02:00:05;97896.31;;;15.32;79.70
18275;BME280;19470;49.322;7.218;2024-03-23T02:02:32;97897.06;;;15.52;78.51
18275;BME280;19470;49.322;7.218;2024-03-23T02:04:59;97888.56;;;15.50;78.86
18275;BME280;19470;49.322;7.218;2024-03-23T02:07:24;97892.16;;;16.05;76.20
18275;BME280;19470;49.322;7.218;2024-03-23T02:09:51;97884.97;;;15.41;78.69
18275;BME280;19470;49.322;7.218;2024-03-23T02:12:18;97888.91;;;15.29;79.87
18275;BME280;19470;49.322;7.218;2024-03-23T02:14:44;97894.78;;;15.78;76.81
18275;BME280;19470;49.322;7.218;2024-03-23T02:17:10;97884.16;;;15.26;79.33
18275;BME280;19470;49.322;7.218;2024-03-23T02:19:38;97880.13;;;15.43;79.66
18275;BME280;19470;49.322;7.218;2024-03-23T02:22:03;97881.56;;;15.54;78.53
18275;BME280;19470;49.322;7.218;2024-03-23T02:24:31;97883.72;;;15.84;77.52
18275;BME280;19470;49.322;7.218;2024-03-23T02:26:57;97874.41;;;15.68;78.64
18275;BME280;19470;49.322;7.218;2024-03-23T02:29:23;97869.41;;;15.62;79.71
18275;BME280;19470;49.322;7.218;2024-03-23T02:31:49;97871.38;;;15.56;78.98
18275;BME280;19470;49.322;7.218;2024-03-23T02:34:15;97871.78;;;14.98;82.18
18275;BME280;19470;49.322;7.218;2024-03-23T02:36:41;97873.91;;;15.47;80.27
18275;BME280;19470;49.322;7.218;2024-03-23T02:39:07;97878.94;;;15.68;78.86
18275;BME280;19470;49.322;7.218;2024-03-23T02:41:34;97887.72;;;15.03;82.32
18275;BME280;19470;49.322;7.218;2024-03-23T02:44:01;97893.75;;;14.71;85.07
18275;BME280;19470;49.322;7.218;2024-03-23T02:46:26;97885.44;;;15.10;83.86
18275;BME280;19470;49.322;7.218;2024-03-23T02:48:53;97888.88;;;14.97;84.37
18275;BME280;19470;49.322;7.218;2024-03-23T02:51:19;97890.16;;;14.80;85.01
18275;BME280;19470;49.322;7.218;2024-03-23T02:53:45;97884.47;;;14.68;86.95
18275;BME280;19470;49.322;7.218;2024-03-23T02:56:11;97883.38;;;14.69;87.45
18275;BME280;19470;49.322;7.218;2024-03-23T02:58:42;97876.38;;;15.11;83.68
18275;BME280;19470;49.322;7.218;2024-03-23T03:01:09;97868.47;;;15.06;84.29
18275;BME280;19470;49.322;7.218;2024-03-23T03:03:34;97861.00;;;15.54;81.86
18275;BME280;19470;49.322;7.218;2024-03-23T03:06:00;97865.13;;;15.47;81.54
18275;BME280;19470;49.322;7.218;2024-03-23T03:08:26;97866.47;;;15.63;80.39
18275;BME280;19470;49.322;7.218;2024-03-23T03:10:52;97874.44;;;14.98;84.89
18275;BME280;19470;49.322;7.218;2024-03-23T03:13:18;97854.63;;;15.69;80.70
18275;BME280;19470;49.322;7.218;2024-03-23T03:15:46;97861.34;;;15.80;80.10
18275;BME280;19470;49.322;7.218;2024-03-23T03:18:12;97888.72;;;14.69;84.93
18275;BME280;19470;49.322;7.218;2024-03-23T03:20:38;97865.22;;;14.71;86.29
18275;BME280;19470;49.322;7.218;2024-03-23T03:23:04;97859.78;;;15.14;81.84
18275;BME280;19470;49.322;7.218;2024-03-23T03:25:31;97889.84;;;14.63;82.76
18275;BME280;19470;49.322;7.218;2024-03-23T03:27:56;97870.13;;;14.64;85.21
18275;BME280;19470;49.322;7.218;2024-03-23T03:30:23;97910.22;;;14.06;87.15
18275;BME280;19470;49.322;7.218;2024-03-23T03:32:51;97882.16;;;13.66;92.05
18275;BME280;19470;49.322;7.218;2024-03-23T03:35:18;97865.34;;;13.70;92.95
18275;BME280;19470;49.322;7.218;2024-03-23T03:37:43;97907.03;;;13.51;94.37
18275;BME280;19470;49.322;7.218;2024-03-23T03:40:11;97916.44;;;13.38;96.13
18275;BME280;19470;49.322;7.218;2024-03-23T03:42:37;97883.47;;;13.00;97.21
18275;BME280;19470;49.322;7.218;2024-03-23T03:45:07;97904.38;;;13.51;92.80
18275;BME280;19470;49.322;7.218;2024-03-23T03:47:32;97911.44;;;12.87;97.98
18275;BME280;19470;49.322;7.218;2024-03-23T03:50:00;97910.22;;;13.14;98.25
18275;BME280;19470;49.322;7.218;2024-03-23T03:52:26;97932.50;;;12.73;97.75
18275;BME280;19470;49.322;7.218;2024-03-23T03:54:58;97923.97;;;12.76;96.66
18275;BME280;19470;49.322;7.218;2024-03-23T03:57:27;97943.25;;;12.48;99.94
18275;BME280;19470;49.322;7.218;2024-03-23T03:59:53;97923.81;;;12.58;100.00
18275;BME280;19470;49.322;7.218;2024-03-23T04:02:19;97922.06;;;12.22;100.00
18275;BME280;19470;49.322;7.218;2024-03-23T04:04:45;97940.06;;;12.41;100.00
18275;BME280;19470;49.322;7.218;2024-03-23T04:07:12;97938.25;;;12.91;95.16
18275;BME280;19470;49.322;7.218;2024-03-23T04:09:39;97939.00;;;12.47;97.78
18275;BME280;19470;49.322;7.218;2024-03-23T04:12:05;97945.34;;;13.05;96.56
18275;BME280;19470;49.322;7.218;2024-03-23T04:14:32;97931.09;;;12.26;97.30
18275;BME280;19470;49.322;7.218;2024-03-23T04:16:57;97922.50;;;12.50;98.70
18275;BME280;19470;49.322;7.218;2024-03-23T04:19:24;97933.31;;;11.58;100.00
18275;BME280;19470;49.322;7.218;2024-03-23T04:21:49;97937.13;;;12.47;95.77
18275;BME280;19470;49.322;7.218;2024-03-23T04:24:17;97947.63;;;13.27;91.56
18275;BME280;19470;49.322;7.218;2024-03-23T04:26:44;97948.22;;;12.60;91.34
18275;BME280;19470;49.322;7.218;2024-03-23T04:29:11;97960.00;;;12.43;94.40
18275;BME280;19470;49.322;7.218;2024-03-23T04:31:37;97962.03;;;12.62;90.46
18275;BME280;19470;49.322;7.218;2024-03-23T04:34:04;97958.44;;;12.27;90.47
18275;BME280;19470;49.322;7.218;2024-03-23T04:36:29;97962.28;;;12.60;91.36
18275;BME280;19470;49.322;7.218;2024-03-23T04:38:58;97979.41;;;12.18;90.13
18275;BME280;19470;49.322;7.218;2024-03-23T04:41:26;97990.81;;;11.37;94.57
18275;BME280;19470;49.322;7.218;2024-03-23T04:43:52;97984.75;;;11.52;94.63
18275;BME280;19470;49.322;7.218;2024-03-23T04:46:20;97991.94;;;12.02;92.29
18275;BME280;19470;49.322;7.218;2024-03-23T04:48:46;97996.97;;;11.89;92.17
18275;BME280;19470;49.322;7.218;2024-03-23T04:51:20;97989.00;;;11.99;91.66
18275;BME280;19470;49.322;7.218;2024-03-23T04:53:46;97988.97;;;11.43;92.87
18275;BME280;19470;49.322;7.218;2024-03-23T04:56:14;97986.56;;;12.23;88.39
18275;BME280;19470;49.322;7.218;2024-03-23T04:58:42;98000.63;;;11.47;92.35
18275;BME280;19470;49.322;7.218;2024-03-23T05:01:07;98004.41;;;11.92;89.03
18275;BME280;19470;49.322;7.218;2024-03-23T05:03:34;98004.91;;;11.99;88.57
18275;BME280;19470;49.322;7.218;2024-03-23T05:06:00;98003.31;;;12.23;88.32
18275;BME280;19470;49.322;7.218;2024-03-23T05:08:26;98004.06;;;12.39;86.43
18275;BME280;19470;49.322;7.218;2024-03-23T05:10:52;98012.38;;;11.92;87.57
18275;BME280;19470;49.322;7.218;2024-03-23T05:13:18;98008.75;;;12.73;85.09
18275;BME280;19470;49.322;7.218;2024-03-23T05:15:51;98015.41;;;12.65;84.49
18275;BME280;19470;49.322;7.218;2024-03-23T05:18:18;98026.16;;;12.04;87.68
18275;BME280;19470;49.322;7.218;2024-03-23T05:20:43;98030.91;;;13.13;82.80
18275;BME280;19470;49.322;7.218;2024-03-23T05:23:10;98032.81;;;11.96;89.23
18275;BME280;19470;49.322;7.218;2024-03-23T05:25:35;98037.78;;;12.49;85.73
18275;BME280;19470;49.322;7.218;2024-03-23T05:28:02;98019.22;;;11.52;88.35
18275;BME280;19470;49.322;7.218;2024-03-23T05:30:27;98036.25;;;12.02;86.62
18275;BME280;19470;49.322;7.218;2024-03-23T05:32:55;98042.59;;;12.11;85.50
18275;BME280;19470;49.322;7.218;2024-03-23T05:35:20;98044.16;;;11.66;90.29
18275;BME280;19470;49.322;7.218;2024-03-23T05:37:47;98048.97;;;11.85;88.32
18275;BME280;19470;49.322;7.218;2024-03-23T05:40:12;98037.25;;;11.60;90.94
18275;BME280;19470;49.322;7.218;2024-03-23T05:42:40;98046.75;;;11.25;92.26
18275;BME280;19470;49.322;7.218;2024-03-23T05:45:07;98028.25;;;11.82;89.80
18275;BME280;19470;49.322;7.218;2024-03-23T05:47:34;98050.56;;;12.16;88.19
18275;BME280;19470;49.322;7.218;2024-03-23T05:50:01;98061.38;;;11.48;91.91
18275;BME280;19470;49.322;7.218;2024-03-23T05:52:28;98063.16;;;11.22;91.13
18275;BME280;19470;49.322;7.218;2024-03-23T05:54:53;98059.84;;;12.29;86.30
18275;BME280;19470;49.322;7.218;2024-03-23T05:57:20;98063.31;;;12.24;84.42
18275;BME280;19470;49.322;7.218;2024-03-23T05:59:46;98065.34;;;11.51;86.70
18275;BME280;19470;49.322;7.218;2024-03-23T06:02:12;98070.66;;;11.71;84.95
18275;BME280;19470;49.322;7.218;2024-03-23T06:04:38;98085.28;;;11.79;83.05
18275;BME280;19470;49.322;7.218;2024-03-23T06:07:06;98079.38;;;11.41;87.55
18275;BME280;19470;49.322;7.218;2024-03-23T06:09:32;98083.72;;;11.93;80.82
18275;BME280;19470;49.322;7.218;2024-03-23T06:11:58;98084.00;;;12.27;80.65
18275;BME280;19470;49.322;7.218;2024-03-23T06:14:24;98095.88;;;11.74;79.21
18275;BME280;19470;49.322;7.218;2024-03-23T06:16:50;98108.16;;;12.11;77.36
18275;BME280;19470;49.322;7.218;2024-03-23T06:19:16;98118.50;;;11.87;79.05
18275;BME280;19470;49.322;7.218;2024-03-23T06:21:43;98132.63;;;11.30;79.91
18275;BME280;19470;49.322;7.218;2024-03-23T06:24:10;98135.34;;;10.87;83.70
18275;BME280;19470;49.322;7.218;2024-03-23T06:26:37;98125.13;;;11.89;79.32
18275;BME280;19470;49.322;7.218;2024-03-23T06:29:02;98145.53;;;11.84;76.76
18275;BME280;19470;49.322;7.218;2024-03-23T06:31:30;98149.84;;;12.05;76.38
18275;BME280;19470;49.322;7.218;2024-03-23T06:33:55;98164.09;;;11.11;81.47
18275;BME280;19470;49.322;7.218;2024-03-23T06:36:22;98172.09;;;12.04;75.96
18275;BME280;19470;49.322;7.218;2024-03-23T06:38:47;98193.31;;;11.94;76.98
18275;BME280;19470;49.322;7.218;2024-03-23T06:41:15;98183.84;;;12.23;75.06
18275;BME280;19470;49.322;7.218;2024-03-23T06:43:41;98176.03;;;11.18;78.11
18275;BME280;19470;49.322;7.218;2024-03-23T06:46:07;98194.94;;;12.00;75.88
18275;BME280;19470;49.322;7.218;2024-03-23T06:48:33;98208.53;;;11.56;75.91
18275;BME280;19470;49.322;7.218;2024-03-23T06:50:59;98225.28;;;11.62;74.15
18275;BME280;19470;49.322;7.218;2024-03-23T06:53:25;98223.38;;;12.35;71.43
18275;BME280;19470;49.322;7.218;2024-03-23T06:55:52;98230.88;;;11.65;74.62
18275;BME280;19470;49.322;7.218;2024-03-23T06:58:20;98244.94;;;11.18;76.94
18275;BME280;19470;49.322;7.218;2024-03-23T07:00:46;98246.63;;;11.35;77.15
18275;BME280;19470;49.322;7.218;2024-03-23T07:03:12;98242.03;;;11.72;74.85
18275;BME280;19470;49.322;7.218;2024-03-23T07:05:38;98235.81;;;10.99;77.85
18275;BME280;19470;49.322;7.218;2024-03-23T07:08:05;98247.59;;;11.18;75.87
18275;BME280;19470;49.322;7.218;2024-03-23T07:10:31;98256.00;;;11.10;76.27
18275;BME280;19470;49.322;7.218;2024-03-23T07:12:57;98264.53;;;11.60;73.07
18275;BME280;19470;49.322;7.218;2024-03-23T07:15:25;98272.69;;;11.48;73.08
18275;BME280;19470;49.322;7.218;2024-03-23T07:17:50;98256.34;;;12.60;68.98
18275;BME280;19470;49.322;7.218;2024-03-23T07:20:17;98273.25;;;12.13;69.91
18275;BME280;19470;49.322;7.218;2024-03-23T07:22:42;98268.84;;;13.00;67.97
18275;BME280;19470;49.322;7.218;2024-03-23T07:25:08;98273.06;;;12.45;67.37
18275;BME280;19470;49.322;7.218;2024-03-23T07:27:34;98270.84;;;13.64;64.45
18275;BME280;19470;49.322;7.218;2024-03-23T07:30:01;98289.56;;;12.98;63.42
18275;BME280;19470;49.322;7.218;2024-03-23T07:32:27;98271.66;;;13.60;63.68
18275;BME280;19470;49.322;7.218;2024-03-23T07:34:54;98281.84;;;13.12;63.96
18275;BME280;19470;49.322;7.218;2024-03-23T07:37:19;98282.09;;;12.54;65.61
18275;BME280;19470;49.322;7.218;2024-03-23T07:39:46;98278.38;;;13.21;65.83
18275;BME280;19470;49.322;7.218;2024-03-23T07:42:12;98283.50;;;14.03;62.36
18275;BME280;19470;49.322;7.218;2024-03-23T07:44:38;98301.13;;;12.10;68.33
18275;BME280;19470;49.322;7.218;2024-03-23T07:47:04;98297.28;;;12.89;64.82
18275;BME280;19470;49.322;7.218;2024-03-23T07:49:32;98299.91;;;12.74;66.10
18275;BME280;19470;49.322;7.218;2024-03-23T07:51:57;98300.75;;;12.95;65.77
18275;BME280;19470;49.322;7.218;2024-03-23T07:54:24;98314.53;;;12.76;65.15
18275;BME280;19470;49.322;7.218;2024-03-23T07:56:49;98325.47;;;13.41;62.47
18275;BME280;19470;49.322;7.218;2024-03-23T07:59:16;98315.63;;;12.81;66.02
18275;BME280;19470;49.322;7.218;2024-03-23T08:01:41;98318.19;;;12.35;66.04
18275;BME280;19470;49.322;7.218;2024-03-23T08:04:08;98319.28;;;12.49;67.48
18275;BME280;19470;49.322;7.218;2024-03-23T08:06:35;98316.41;;;12.81;66.20
18275;BME280;19470;49.322;7.218;2024-03-23T08:09:01;98319.91;;;13.22;64.67
18275;BME280;19470;49.322;7.218;2024-03-23T08:11:27;98319.84;;;12.97;64.65
18275;BME280;19470;49.322;7.218;2024-03-23T08:13:54;98318.81;;;13.13;64.68
18275;BME280;19470;49.322;7.218;2024-03-23T08:16:20;98316.41;;;12.91;63.06
18275;BME280;19470;49.322;7.218;2024-03-23T08:18:47;98324.66;;;12.85;63.73
18275;BME280;19470;49.322;7.218;2024-03-23T08:21:13;98319.97;;;14.07;61.18
18275;BME280;19470;49.322;7.218;2024-03-23T08:23:41;98341.91;;;12.67;62.45
18275;BME280;19470;49.322;7.218;2024-03-23T08:26:08;98331.50;;;12.50;64.69
18275;BME280;19470;49.322;7.218;2024-03-23T08:28:35;98327.31;;;11.86;66.48
18275;BME280;19470;49.322;7.218;2024-03-23T08:31:01;98325.16;;;12.71;63.85
18275;BME280;19470;49.322;7.218;2024-03-23T08:33:28;98327.72;;;12.36;65.71
18275;BME280;19470;49.322;7.218;2024-03-23T08:35:54;98327.28;;;12.69;64.31
18275;BME280;19470;49.322;7.218;2024-03-23T08:38:21;98330.22;;;12.73;64.46
18275;BME280;19470;49.322;7.218;2024-03-23T08:40:56;98341.66;;;13.60;62.25
18275;BME280;19470;49.322;7.218;2024-03-23T08:43:22;98346.03;;;12.32;65.73
18275;BME280;19470;49.322;7.218;2024-03-23T08:45:48;98340.06;;;12.83;65.27
18275;BME280;19470;49.322;7.218;2024-03-23T08:48:15;98336.28;;;12.58;65.88
18275;BME280;19470;49.322;7.218;2024-03-23T08:50:41;98350.16;;;12.96;63.53
18275;BME280;19470;49.322;7.218;2024-03-23T08:53:08;98334.94;;;14.43;59.96
18275;BME280;19470;49.322;7.218;2024-03-23T08:55:33;98334.00;;;13.23;60.29
18275;BME280;19470;49.322;7.218;2024-03-23T08:58:02;98342.13;;;12.50;61.48
18275;BME280;19470;49.322;7.218;2024-03-23T09:00:27;98337.88;;;13.76;58.17
18275;BME280;19470;49.322;7.218;2024-03-23T09:02:54;98340.97;;;14.09;57.25
18275;BME280;19470;49.322;7.218;2024-03-23T09:05:20;98334.38;;;14.56;57.20
18275;BME280;19470;49.322;7.218;2024-03-23T09:07:47;98349.13;;;13.48;56.74
18275;BME280;19470;49.322;7.218;2024-03-23T09:10:12;98343.72;;;13.84;55.22
18275;BME280;19470;49.322;7.218;2024-03-23T09:12:39;98344.88;;;13.37;54.88
18275;BME280;19470;49.322;7.218;2024-03-23T09:15:06;98332.22;;;14.58;53.64
18275;BME280;19470;49.322;7.218;2024-03-23T09:17:33;98338.97;;;13.70;55.56
18275;BME280;19470;49.322;7.218;2024-03-23T09:19:58;98350.47;;;14.36;53.83
18275;BME280;19470;49.322;7.218;2024-03-23T09:22:25;98338.19;;;16.86;48.12
18275;BME280;19470;49.322;7.218;2024-03-23T09:24:50;98351.19;;;14.51;52.47
18275;BME280;19470;49.322;7.218;2024-03-23T09:27:17;98334.09;;;14.03;52.88
18275;BME280;19470;49.322;7.218;2024-03-23T09:29:42;98342.28;;;15.05;52.08
18275;BME280;19470;49.322;7.218;2024-03-23T09:32:11;98342.16;;;14.87;52.43
18275;BME280;19470;49.322;7.218;2024-03-23T09:34:36;98341.28;;;14.62;52.92
18275;BME280;19470;49.322;7.218;2024-03-23T09:37:03;98348.66;;;15.44;49.91
18275;BME280;19470;49.322;7.218;2024-03-23T09:39:28;98332.50;;;17.39;47.82
18275;BME280;19470;49.322;7.218;2024-03-23T09:41:56;98338.16;;;17.84;44.40
18275;BME280;19470;49.322;7.218;2024-03-23T09:44:22;98337.03;;;15.88;48.81
18275;BME280;19470;49.322;7.218;2024-03-23T09:46:49;98344.47;;;15.32;49.05
18275;BME280;19470;49.322;7.218;2024-03-23T09:49:17;98349.41;;;15.20;50.78
18275;BME280;19470;49.322;7.218;2024-03-23T09:51:43;98339.88;;;14.15;53.77
18275;BME280;19470;49.322;7.218;2024-03-23T09:54:09;98347.16;;;14.59;52.01
18275;BME280;19470;49.322;7.218;2024-03-23T09:56:35;98339.88;;;14.15;53.93
18275;BME280;19470;49.322;7.218;2024-03-23T09:59:01;98339.25;;;14.33;54.81
18275;BME280;19470;49.322;7.218;2024-03-23T10:01:29;98333.94;;;15.17;53.67
18275;BME280;19470;49.322;7.218;2024-03-23T10:03:55;98360.25;;;14.95;54.00
18275;BME280;19470;49.322;7.218;2024-03-23T10:06:23;98338.94;;;15.58;51.67
18275;BME280;19470;49.322;7.218;2024-03-23T10:08:50;98315.19;;;15.27;52.19
18275;BME280;19470;49.322;7.218;2024-03-23T10:11:17;98325.72;;;17.14;47.36
18275;BME280;19470;49.322;7.218;2024-03-23T10:13:43;98317.31;;;17.95;42.05
18275;BME280;19470;49.322;7.218;2024-03-23T10:16:11;98311.28;;;16.40;44.20
18275;BME280;19470;49.322;7.218;2024-03-23T10:18:37;98308.13;;;16.38;43.50
18275;BME280;19470;49.322;7.218;2024-03-23T10:21:08;98325.97;;;16.61;42.88
18275;BME280;19470;49.322;7.218;2024-03-23T10:23:36;98325.16;;;15.75;43.34
18275;BME280;19470;49.322;7.218;2024-03-23T10:26:13;98316.34;;;15.98;43.86
18275;BME280;19470;49.322;7.218;2024-03-23T10:28:50;98329.56;;;15.31;44.40
18275;BME280;19470;49.322;7.218;2024-03-23T10:31:17;98330.34;;;14.64;46.27
18275;BME280;19470;49.322;7.218;2024-03-23T10:33:44;98304.09;;;15.15;45.70
18275;BME280;19470;49.322;7.218;2024-03-23T10:36:11;98319.13;;;14.12;45.49
18275;BME280;19470;49.322;7.218;2024-03-23T10:38:39;98318.91;;;14.58;45.71
18275;BME280;19470;49.322;7.218;2024-03-23T10:41:07;98334.78;;;13.23;47.85
18275;BME280;19470;49.322;7.218;2024-03-23T10:43:33;98353.41;;;13.23;49.74
18275;BME280;19470;49.322;7.218;2024-03-23T10:46:00;98372.59;;;10.78;61.66
18275;BME280;19470;49.322;7.218;2024-03-23T10:48:26;98425.41;;;10.02;73.48
18275;BME280;19470;49.322;7.218;2024-03-23T10:50:52;98402.44;;;10.24;79.19
18275;BME280;19470;49.322;7.218;2024-03-23T10:53:18;98378.66;;;10.73;76.47
18275;BME280;19470;49.322;7.218;2024-03-23T10:55:46;98383.47;;;12.25;76.63
18275;BME280;19470;49.322;7.218;2024-03-23T10:58:12;98367.66;;;13.94;68.42
18275;BME280;19470;49.322;7.218;2024-03-23T11:00:39;98370.13;;;13.70;68.67
18275;BME280;19470;49.322;7.218;2024-03-23T11:03:32;98349.47;;;14.11;62.88
18275;BME280;19470;49.322;7.218;2024-03-23T11:05:59;98356.75;;;14.60;65.17
18275;BME280;19470;49.322;7.218;2024-03-23T11:08:33;98353.59;;;16.32;55.53
18275;BME280;19470;49.322;7.218;2024-03-23T11:11:15;98333.47;;;16.97;54.92
18275;BME280;19470;49.322;7.218;2024-03-23T11:13:42;98359.59;;;15.76;52.93
18275;BME280;19470;49.322;7.218;2024-03-23T11:16:13;98329.63;;;15.79;54.49
18275;BME280;19470;49.322;7.218;2024-03-23T11:18:39;98310.91;;;19.04;48.93
18275;BME280;19470;49.322;7.218;2024-03-23T11:21:06;98305.97;;;20.91;44.95
18275;BME280;19470;49.322;7.218;2024-03-23T11:23:32;98292.44;;;18.80;48.22
18275;BME280;19470;49.322;7.218;2024-03-23T11:25:58;98300.97;;;16.09;49.10
18275;BME280;19470;49.322;7.218;2024-03-23T11:28:26;98329.31;;;16.10;51.43
18275;BME280;19470;49.322;7.218;2024-03-23T11:30:52;98358.59;;;15.04;54.68
18275;BME280;19470;49.322;7.218;2024-03-23T11:33:18;98482.22;;;10.99;72.71
18275;BME280;19470;49.322;7.218;2024-03-23T11:35:44;98468.91;;;8.82;88.44
18275;BME280;19470;49.322;7.218;2024-03-23T11:38:11;98429.03;;;8.83;96.10
18275;BME280;19470;49.322;7.218;2024-03-23T11:40:39;98424.69;;;8.49;91.81
18275;BME280;19470;49.322;7.218;2024-03-23T11:43:05;98422.97;;;8.83;90.32
18275;BME280;19470;49.322;7.218;2024-03-23T11:45:38;98431.63;;;9.57;91.22
18275;BME280;19470;49.322;7.218;2024-03-23T11:48:06;98410.56;;;9.79;90.17
18275;BME280;19470;49.322;7.218;2024-03-23T11:50:36;98411.47;;;9.90;90.69
18275;BME280;19470;49.322;7.218;2024-03-23T11:53:09;98439.31;;;8.68;96.34
18275;BME280;19470;49.322;7.218;2024-03-23T11:55:43;98378.69;;;9.18;95.04
18275;BME280;19470;49.322;7.218;2024-03-23T11:58:09;98396.41;;;10.51;87.60
18275;BME280;19470;49.322;7.218;2024-03-23T12:00:37;98385.41;;;10.37;82.97
18275;BME280;19470;49.322;7.218;2024-03-23T12:03:03;98398.06;;;9.75;83.42
18275;BME280;19470;49.322;7.218;2024-03-23T12:05:30;98405.50;;;10.16;84.17
18275;BME280;19470;49.322;7.218;2024-03-23T12:08:15;98387.94;;;9.88;86.79
18275;BME280;19470;49.322;7.218;2024-03-23T12:10:44;98378.28;;;9.99;86.47
18275;BME280;19470;49.322;7.218;2024-03-23T12:13:09;98376.03;;;11.43;81.55
18275;BME280;19470;49.322;7.218;2024-03-23T12:15:37;98375.44;;;13.09;70.38
18275;BME280;19470;49.322;7.218;2024-03-23T12:18:07;98360.38;;;15.77;66.28
18275;BME280;19470;49.322;7.218;2024-03-23T12:20:33;98357.31;;;15.59;63.44
18275;BME280;19470;49.322;7.218;2024-03-23T12:23:05;98371.94;;;13.03;73.75
18275;BME280;19470;49.322;7.218;2024-03-23T12:25:32;98374.44;;;12.32;70.02
18275;BME280;19470;49.322;7.218;2024-03-23T12:27:58;98368.19;;;12.73;74.23
18275;BME280;19470;49.322;7.218;2024-03-23T12:30:25;98374.41;;;12.16;77.04
18275;BME280;19470;49.322;7.218;2024-03-23T12:32:52;98342.72;;;12.98;72.19
18275;BME280;19470;49.322;7.218;2024-03-23T12:35:18;98363.16;;;11.99;74.73
18275;BME280;19470;49.322;7.218;2024-03-23T12:37:44;98352.91;;;11.33;74.36
18275;BME280;19470;49.322;7.218;2024-03-23T12:40:10;98335.16;;;12.28;75.43
18275;BME280;19470;49.322;7.218;2024-03-23T12:42:36;98346.34;;;11.41;74.35
18275;BME280;19470;49.322;7.218;2024-03-23T12:45:03;98343.81;;;11.61;77.13
18275;BME280;19470;49.322;7.218;2024-03-23T12:47:30;98366.13;;;10.96;76.63
18275;BME280;19470;49.322;7.218;2024-03-23T12:49:58;98342.88;;;11.03;77.88
18275;BME280;19470;49.322;7.218;2024-03-23T12:52:23;98321.16;;;13.66;66.47
18275;BME280;19470;49.322;7.218;2024-03-23T12:54:54;98308.97;;;15.37;61.92
18275;BME280;19470;49.322;7.218;2024-03-23T12:57:21;98306.38;;;15.56;55.61
18275;BME280;19470;49.322;7.218;2024-03-23T12:59:47;98290.78;;;15.68;59.04
18275;BME280;19470;49.322;7.218;2024-03-23T13:02:16;98285.91;;;16.75;53.07
18275;BME280;19470;49.322;7.218;2024-03-23T13:04:42;98292.34;;;14.87;56.65
18275;BME280;19470;49.322;7.218;2024-03-23T13:07:10;98297.75;;;13.58;60.32
18275;BME280;19470;49.322;7.218;2024-03-23T13:09:36;98292.50;;;12.76;64.54
18275;BME280;19470;49.322;7.218;2024-03-23T13:12:02;98294.34;;;12.81;63.91
18275;BME280;19470;49.322;7.218;2024-03-23T13:14:28;98285.56;;;13.05;63.99
18275;BME280;19470;49.322;7.218;2024-03-23T13:16:54;98276.00;;;14.94;58.47
18275;BME280;19470;49.322;7.218;2024-03-23T13:19:20;98288.75;;;13.08;60.66
18275;BME280;19470;49.322;7.218;2024-03-23T13:21:50;98276.53;;;14.12;58.23
18275;BME280;19470;49.322;7.218;2024-03-23T13:24:21;98276.41;;;13.73;56.37
18275;BME280;19470;49.322;7.218;2024-03-23T13:26:47;98267.97;;;14.15;57.91
18275;BME280;19470;49.322;7.218;2024-03-23T13:29:13;98260.41;;;15.11;50.78
18275;BME280;19470;49.322;7.218;2024-03-23T13:31:38;98275.47;;;14.08;51.87
18275;BME280;19470;49.322;7.218;2024-03-23T13:34:05;98255.25;;;15.73;51.42
18275;BME280;19470;49.322;7.218;2024-03-23T13:36:31;98255.53;;;16.52;47.53
18275;BME280;19470;49.322;7.218;2024-03-23T13:38:57;98249.88;;;15.49;49.43
18275;BME280;19470;49.322;7.218;2024-03-23T13:41:25;98257.31;;;13.61;52.19
18275;BME280;19470;49.322;7.218;2024-03-23T13:43:52;98248.13;;;13.22;53.32
18275;BME280;19470;49.322;7.218;2024-03-23T13:46:18;98248.84;;;15.45;47.86
18275;BME280;19470;49.322;7.218;2024-03-23T13:48:44;98244.00;;;14.15;50.49
18275;BME280;19470;49.322;7.218;2024-03-23T13:51:10;98245.06;;;14.64;49.74